Green Bay (GRB/KGRB)

Map

Information

Location
Green Bay, WI
Local Time
19:19 / 7:19 pm
GMT Time
00:19 / 12:19 am
Gates
Unassigned
No FAA reported delays
METAR KGRB 222353Z 16008KT 10SM CLR 01/M06 A3050 RMK AO2 SLP339 T00061061 10022 21011 56015
TAF KGRB 222320Z 2300/2324 14004KT P6SM BKN200 FM230800 16004KT P6SM BKN120 FM231200 16008KT P6SM OVC080 FM231600 16013G20KT P6SM OVC080 FM232200 16011G16KT P6SM VCSH OVC050
  • No charts available